sensor_id;sensor_type;location;lat;lon;timestamp;temperature;humidity
31133;DHT22;17779;50.942;4.026;2024-03-02T00:00:58;6.60;99.90
31133;DHT22;17779;50.942;4.026;2024-03-02T00:03:24;6.70;99.90
31133;DHT22;17779;50.942;4.026;2024-03-02T00:05:50;6.70;99.90
31133;DHT22;17779;50.942;4.026;2024-03-02T00:08:19;6.70;99.90
31133;DHT22;17779;50.942;4.026;2024-03-02T00:10:48;6.70;99.90
31133;DHT22;17779;50.942;4.026;2024-03-02T00:13:14;6.70;99.90
31133;DHT22;17779;50.942;4.026;2024-03-02T00:15:41;6.70;99.90
31133;DHT22;17779;50.942;4.026;2024-03-02T00:18:10;6.70;99.90
31133;DHT22;17779;50.942;4.026;2024-03-02T00:20:36;6.60;99.90
31133;DHT22;17779;50.942;4.026;2024-03-02T00:23:08;6.80;99.90
31133;DHT22;17779;50.942;4.026;2024-03-02T00:25:37;6.70;99.90
31133;DHT22;17779;50.942;4.026;2024-03-02T00:28:04;6.70;99.90
31133;DHT22;17779;50.942;4.026;2024-03-02T00:30:51;6.80;99.90
31133;DHT22;17779;50.942;4.026;2024-03-02T00:33:19;6.90;99.90
31133;DHT22;17779;50.942;4.026;2024-03-02T00:35:46;6.90;99.90
31133;DHT22;17779;50.942;4.026;2024-03-02T00:38:13;6.80;99.90
31133;DHT22;17779;50.942;4.026;2024-03-02T00:40:42;6.80;99.90
31133;DHT22;17779;50.942;4.026;2024-03-02T00:45:53;6.80;99.90
31133;DHT22;17779;50.942;4.026;2024-03-02T00:48:18;6.90;99.90
31133;DHT22;17779;50.942;4.026;2024-03-02T00:50:44;6.90;99.90
31133;DHT22;17779;50.942;4.026;2024-03-02T00:53:12;6.90;99.90
31133;DHT22;17779;50.942;4.026;2024-03-02T00:55:37;7.00;99.90
31133;DHT22;17779;50.942;4.026;2024-03-02T00:58:04;7.00;99.90
31133;DHT22;17779;50.942;4.026;2024-03-02T01:00:30;6.90;99.90
31133;DHT22;17779;50.942;4.026;2024-03-02T01:02:56;6.90;99.90
31133;DHT22;17779;50.942;4.026;2024-03-02T01:05:23;6.90;99.90
31133;DHT22;17779;50.942;4.026;2024-03-02T01:07:48;6.90;99.90
31133;DHT22;17779;50.942;4.026;2024-03-02T01:10:14;6.90;99.90
31133;DHT22;17779;50.942;4.026;2024-03-02T01:12:40;6.80;99.90
31133;DHT22;17779;50.942;4.026;2024-03-02T01:15:06;7.00;99.90
31133;DHT22;17779;50.942;4.026;2024-03-02T01:17:33;7.00;99.90
31133;DHT22;17779;50.942;4.026;2024-03-02T01:19:59;6.90;99.90
31133;DHT22;17779;50.942;4.026;2024-03-02T01:22:24;7.00;99.90
31133;DHT22;17779;50.942;4.026;2024-03-02T01:24:51;7.00;99.90
31133;DHT22;17779;50.942;4.026;2024-03-02T01:27:16;6.90;99.90
31133;DHT22;17779;50.942;4.026;2024-03-02T01:29:42;7.00;99.90
31133;DHT22;17779;50.942;4.026;2024-03-02T01:32:08;6.90;99.90
31133;DHT22;17779;50.942;4.026;2024-03-02T01:34:33;6.90;99.90
31133;DHT22;17779;50.942;4.026;2024-03-02T01:36:59;6.80;99.90
31133;DHT22;17779;50.942;4.026;2024-03-02T01:39:24;6.70;99.90
31133;DHT22;17779;50.942;4.026;2024-03-02T01:41:50;6.70;99.90
31133;DHT22;17779;50.942;4.026;2024-03-02T01:44:16;6.70;99.90
31133;DHT22;17779;50.942;4.026;2024-03-02T01:46:42;6.70;99.90
31133;DHT22;17779;50.942;4.026;2024-03-02T01:49:08;6.60;99.90
31133;DHT22;17779;50.942;4.026;2024-03-02T01:51:33;6.60;99.90
31133;DHT22;17779;50.942;4.026;2024-03-02T01:53:59;6.70;99.90
31133;DHT22;17779;50.942;4.026;2024-03-02T01:56:25;6.70;99.90
31133;DHT22;17779;50.942;4.026;2024-03-02T01:58:50;6.60;99.90
31133;DHT22;17779;50.942;4.026;2024-03-02T02:01:16;6.60;99.90
31133;DHT22;17779;50.942;4.026;2024-03-02T02:03:43;6.60;99.90
31133;DHT22;17779;50.942;4.026;2024-03-02T02:06:10;6.50;99.90
31133;DHT22;17779;50.942;4.026;2024-03-02T02:08:38;6.50;99.90
31133;DHT22;17779;50.942;4.026;2024-03-02T02:11:04;6.50;99.90
31133;DHT22;17779;50.942;4.026;2024-03-02T02:13:30;6.40;99.90
31133;DHT22;17779;50.942;4.026;2024-03-02T02:16:00;6.50;99.90
31133;DHT22;17779;50.942;4.026;2024-03-02T02:18:29;6.50;99.90
31133;DHT22;17779;50.942;4.026;2024-03-02T02:20:54;6.50;99.90
31133;DHT22;17779;50.942;4.026;2024-03-02T02:23:20;6.60;99.90
31133;DHT22;17779;50.942;4.026;2024-03-02T02:25:46;6.50;99.90
31133;DHT22;17779;50.942;4.026;2024-03-02T02:28:11;6.60;99.90
31133;DHT22;17779;50.942;4.026;2024-03-02T02:30:37;6.70;99.90
31133;DHT22;17779;50.942;4.026;2024-03-02T02:33:02;6.60;99.90
31133;DHT22;17779;50.942;4.026;2024-03-02T02:35:28;6.60;99.90
31133;DHT22;17779;50.942;4.026;2024-03-02T02:37:55;6.70;99.90
31133;DHT22;17779;50.942;4.026;2024-03-02T02:40:20;6.80;99.90
31133;DHT22;17779;50.942;4.026;2024-03-02T02:42:46;6.80;99.90
31133;DHT22;17779;50.942;4.026;2024-03-02T02:45:12;6.80;99.90
31133;DHT22;17779;50.942;4.026;2024-03-02T02:47:41;6.90;99.90
31133;DHT22;17779;50.942;4.026;2024-03-02T02:50:07;6.90;99.90
31133;DHT22;17779;50.942;4.026;2024-03-02T02:52:33;6.90;99.90
31133;DHT22;17779;50.942;4.026;2024-03-02T02:54:59;6.90;99.90
31133;DHT22;17779;50.942;4.026;2024-03-02T02:57:24;6.90;99.90
31133;DHT22;17779;50.942;4.026;2024-03-02T02:59:50;6.90;99.90
31133;DHT22;17779;50.942;4.026;2024-03-02T03:02:16;6.80;99.90
31133;DHT22;17779;50.942;4.026;2024-03-02T03:04:41;6.90;99.90
31133;DHT22;17779;50.942;4.026;2024-03-02T03:07:07;7.00;99.90
31133;DHT22;17779;50.942;4.026;2024-03-02T03:09:32;7.10;99.90
31133;DHT22;17779;50.942;4.026;2024-03-02T03:11:58;7.00;99.90
31133;DHT22;17779;50.942;4.026;2024-03-02T03:14:24;7.00;99.90
31133;DHT22;17779;50.942;4.026;2024-03-02T03:16:49;7.10;99.90
31133;DHT22;17779;50.942;4.026;2024-03-02T03:19:16;7.10;99.90
31133;DHT22;17779;50.942;4.026;2024-03-02T03:21:43;7.10;99.90
31133;DHT22;17779;50.942;4.026;2024-03-02T03:24:08;7.10;99.90
31133;DHT22;17779;50.942;4.026;2024-03-02T03:26:35;7.00;99.90
31133;DHT22;17779;50.942;4.026;2024-03-02T03:29:01;7.00;99.90
31133;DHT22;17779;50.942;4.026;2024-03-02T03:31:28;7.00;99.90
31133;DHT22;17779;50.942;4.026;2024-03-02T03:33:54;7.00;99.90
31133;DHT22;17779;50.942;4.026;2024-03-02T03:36:20;7.10;99.90
31133;DHT22;17779;50.942;4.026;2024-03-02T03:38:46;7.10;99.90
31133;DHT22;17779;50.942;4.026;2024-03-02T03:41:11;7.10;99.90
31133;DHT22;17779;50.942;4.026;2024-03-02T03:43:37;7.10;99.90
31133;DHT22;17779;50.942;4.026;2024-03-02T03:46:02;7.10;99.90
31133;DHT22;17779;50.942;4.026;2024-03-02T03:48:28;7.10;99.90
31133;DHT22;17779;50.942;4.026;2024-03-02T03:50:56;7.20;99.90
31133;DHT22;17779;50.942;4.026;2024-03-02T03:53:22;7.20;99.90
31133;DHT22;17779;50.942;4.026;2024-03-02T03:55:48;7.20;99.90
31133;DHT22;17779;50.942;4.026;2024-03-02T03:58:15;7.20;99.90
31133;DHT22;17779;50.942;4.026;2024-03-02T04:00:42;7.10;99.90
31133;DHT22;17779;50.942;4.026;2024-03-02T04:03:07;7.20;99.90
31133;DHT22;17779;50.942;4.026;2024-03-02T04:05:33;7.20;99.90
31133;DHT22;17779;50.942;4.026;2024-03-02T04:07:58;7.20;99.90
31133;DHT22;17779;50.942;4.026;2024-03-02T04:10:25;7.10;99.90
31133;DHT22;17779;50.942;4.026;2024-03-02T04:12:51;7.10;99.90
31133;DHT22;17779;50.942;4.026;2024-03-02T04:15:16;7.20;99.90
31133;DHT22;17779;50.942;4.026;2024-03-02T04:17:44;7.20;99.90
31133;DHT22;17779;50.942;4.026;2024-03-02T04:20:09;7.20;99.90
31133;DHT22;17779;50.942;4.026;2024-03-02T04:22:37;7.10;99.90
31133;DHT22;17779;50.942;4.026;2024-03-02T04:25:03;7.20;99.90
31133;DHT22;17779;50.942;4.026;2024-03-02T04:27:30;7.20;99.90
31133;DHT22;17779;50.942;4.026;2024-03-02T04:29:57;7.10;99.90
31133;DHT22;17779;50.942;4.026;2024-03-02T04:32:22;7.00;99.90
31133;DHT22;17779;50.942;4.026;2024-03-02T04:34:48;7.00;99.90
31133;DHT22;17779;50.942;4.026;2024-03-02T04:37:14;7.00;99.90
31133;DHT22;17779;50.942;4.026;2024-03-02T04:39:40;6.90;99.90
31133;DHT22;17779;50.942;4.026;2024-03-02T04:42:05;6.90;99.90
31133;DHT22;17779;50.942;4.026;2024-03-02T04:44:31;6.80;99.90
31133;DHT22;17779;50.942;4.026;2024-03-02T04:46:57;6.80;99.90
31133;DHT22;17779;50.942;4.026;2024-03-02T04:49:23;6.80;99.90
31133;DHT22;17779;50.942;4.026;2024-03-02T04:51:49;6.80;99.90
31133;DHT22;17779;50.942;4.026;2024-03-02T04:54:14;6.80;99.90
31133;DHT22;17779;50.942;4.026;2024-03-02T04:56:40;6.70;99.90
31133;DHT22;17779;50.942;4.026;2024-03-02T04:59:10;6.60;99.90
31133;DHT22;17779;50.942;4.026;2024-03-02T05:01:36;6.50;99.90
31133;DHT22;17779;50.942;4.026;2024-03-02T05:04:01;6.50;99.90
31133;DHT22;17779;50.942;4.026;2024-03-02T05:06:27;6.50;99.90
31133;DHT22;17779;50.942;4.026;2024-03-02T05:08:53;6.60;99.90
31133;DHT22;17779;50.942;4.026;2024-03-02T05:11:18;6.40;99.90
31133;DHT22;17779;50.942;4.026;2024-03-02T05:14:03;6.40;99.90
31133;DHT22;17779;50.942;4.026;2024-03-02T05:16:28;6.40;99.90
31133;DHT22;17779;50.942;4.026;2024-03-02T05:18:54;6.30;99.90
31133;DHT22;17779;50.942;4.026;2024-03-02T05:21:20;6.30;99.90
31133;DHT22;17779;50.942;4.026;2024-03-02T05:23:46;6.30;99.90
31133;DHT22;17779;50.942;4.026;2024-03-02T05:26:13;6.30;99.90
31133;DHT22;17779;50.942;4.026;2024-03-02T05:28:39;6.30;99.90
31133;DHT22;17779;50.942;4.026;2024-03-02T05:31:06;6.20;99.90
31133;DHT22;17779;50.942;4.026;2024-03-02T05:33:32;6.20;99.90
31133;DHT22;17779;50.942;4.026;2024-03-02T05:35:58;6.20;99.90
31133;DHT22;17779;50.942;4.026;2024-03-02T05:38:24;6.20;99.90
31133;DHT22;17779;50.942;4.026;2024-03-02T05:40:49;6.10;99.90
31133;DHT22;17779;50.942;4.026;2024-03-02T05:43:15;6.10;99.90
31133;DHT22;17779;50.942;4.026;2024-03-02T05:45:41;6.20;99.90
31133;DHT22;17779;50.942;4.026;2024-03-02T05:48:07;6.20;99.90
31133;DHT22;17779;50.942;4.026;2024-03-02T05:50:33;6.10;99.90
31133;DHT22;17779;50.942;4.026;2024-03-02T05:52:59;6.10;99.90
31133;DHT22;17779;50.942;4.026;2024-03-02T05:55:24;6.00;99.90
31133;DHT22;17779;50.942;4.026;2024-03-02T05:57:50;6.00;99.90
31133;DHT22;17779;50.942;4.026;2024-03-02T06:00:43;6.10;99.90
31133;DHT22;17779;50.942;4.026;2024-03-02T06:03:08;6.10;99.90
31133;DHT22;17779;50.942;4.026;2024-03-02T06:05:35;6.00;99.90
31133;DHT22;17779;50.942;4.026;2024-03-02T06:08:02;6.00;99.90
31133;DHT22;17779;50.942;4.026;2024-03-02T06:10:28;6.00;99.90
31133;DHT22;17779;50.942;4.026;2024-03-02T06:12:53;6.00;99.90
31133;DHT22;17779;50.942;4.026;2024-03-02T06:15:19;6.00;99.90
31133;DHT22;17779;50.942;4.026;2024-03-02T06:17:45;6.00;99.90
31133;DHT22;17779;50.942;4.026;2024-03-02T06:20:10;5.90;99.90
31133;DHT22;17779;50.942;4.026;2024-03-02T06:22:36;6.00;99.90
31133;DHT22;17779;50.942;4.026;2024-03-02T06:25:02;5.90;99.90
31133;DHT22;17779;50.942;4.026;2024-03-02T06:27:27;5.90;99.90
31133;DHT22;17779;50.942;4.026;2024-03-02T06:29:53;5.90;99.90
31133;DHT22;17779;50.942;4.026;2024-03-02T06:32:21;5.90;99.90
31133;DHT22;17779;50.942;4.026;2024-03-02T06:34:46;5.90;99.90
31133;DHT22;17779;50.942;4.026;2024-03-02T06:37:12;5.90;99.90
31133;DHT22;17779;50.942;4.026;2024-03-02T06:39:38;6.00;99.90
31133;DHT22;17779;50.942;4.026;2024-03-02T06:42:04;6.00;99.90
31133;DHT22;17779;50.942;4.026;2024-03-02T06:44:30;6.00;99.90
31133;DHT22;17779;50.942;4.026;2024-03-02T06:46:56;5.90;99.90
31133;DHT22;17779;50.942;4.026;2024-03-02T06:49:22;5.80;99.90
31133;DHT22;17779;50.942;4.026;2024-03-02T06:51:48;5.90;99.90
31133;DHT22;17779;50.942;4.026;2024-03-02T06:54:13;5.90;99.90
31133;DHT22;17779;50.942;4.026;2024-03-02T06:56:39;5.90;99.90
31133;DHT22;17779;50.942;4.026;2024-03-02T06:59:04;5.90;99.90
31133;DHT22;17779;50.942;4.026;2024-03-02T07:01:30;6.00;99.90
31133;DHT22;17779;50.942;4.026;2024-03-02T07:03:56;6.00;99.90
31133;DHT22;17779;50.942;4.026;2024-03-02T07:06:21;6.00;99.90
31133;DHT22;17779;50.942;4.026;2024-03-02T07:08:47;6.00;99.90
31133;DHT22;17779;50.942;4.026;2024-03-02T07:11:13;6.30;99.90
31133;DHT22;17779;50.942;4.026;2024-03-02T07:13:38;6.60;99.90
31133;DHT22;17779;50.942;4.026;2024-03-02T07:16:05;6.80;99.90
31133;DHT22;17779;50.942;4.026;2024-03-02T07:18:36;7.00;99.90
31133;DHT22;17779;50.942;4.026;2024-03-02T07:21:10;7.10;99.90
31133;DHT22;17779;50.942;4.026;2024-03-02T07:23:36;7.30;99.90
31133;DHT22;17779;50.942;4.026;2024-03-02T07:26:03;7.60;99.90
31133;DHT22;17779;50.942;4.026;2024-03-02T07:28:30;7.60;99.90
31133;DHT22;17779;50.942;4.026;2024-03-02T07:31:00;7.90;99.90
31133;DHT22;17779;50.942;4.026;2024-03-02T07:33:26;7.90;99.90
31133;DHT22;17779;50.942;4.026;2024-03-02T07:35:54;7.90;99.90
31133;DHT22;17779;50.942;4.026;2024-03-02T07:38:20;7.70;99.90
31133;DHT22;17779;50.942;4.026;2024-03-02T07:40:47;8.10;99.90
31133;DHT22;17779;50.942;4.026;2024-03-02T07:43:12;8.80;99.90
31133;DHT22;17779;50.942;4.026;2024-03-02T07:45:38;9.10;99.90
31133;DHT22;17779;50.942;4.026;2024-03-02T07:48:05;9.60;99.90
31133;DHT22;17779;50.942;4.026;2024-03-02T07:50:30;9.60;99.90
31133;DHT22;17779;50.942;4.026;2024-03-02T07:55:25;10.30;99.90
31133;DHT22;17779;50.942;4.026;2024-03-02T07:57:51;10.30;99.90
31133;DHT22;17779;50.942;4.026;2024-03-02T08:00:16;10.50;99.90
31133;DHT22;17779;50.942;4.026;2024-03-02T08:02:43;10.80;99.90
31133;DHT22;17779;50.942;4.026;2024-03-02T08:05:08;10.80;99.90
31133;DHT22;17779;50.942;4.026;2024-03-02T08:07:34;11.10;99.90
31133;DHT22;17779;50.942;4.026;2024-03-02T08:10:03;11.10;99.90
31133;DHT22;17779;50.942;4.026;2024-03-02T08:12:29;11.60;99.90
31133;DHT22;17779;50.942;4.026;2024-03-02T08:14:56;11.40;99.90
31133;DHT22;17779;50.942;4.026;2024-03-02T08:17:21;11.50;99.90
31133;DHT22;17779;50.942;4.026;2024-03-02T08:19:48;12.00;99.90
31133;DHT22;17779;50.942;4.026;2024-03-02T08:22:14;12.20;99.90
31133;DHT22;17779;50.942;4.026;2024-03-02T08:24:40;11.90;99.90
31133;DHT22;17779;50.942;4.026;2024-03-02T08:27:06;11.80;99.90
31133;DHT22;17779;50.942;4.026;2024-03-02T08:29:31;12.10;99.90
31133;DHT22;17779;50.942;4.026;2024-03-02T08:31:57;12.50;99.90
31133;DHT22;17779;50.942;4.026;2024-03-02T08:34:23;12.10;99.90
31133;DHT22;17779;50.942;4.026;2024-03-02T08:36:49;11.70;99.90
31133;DHT22;17779;50.942;4.026;2024-03-02T08:39:14;11.90;99.90
31133;DHT22;17779;50.942;4.026;2024-03-02T08:41:45;12.20;99.90
31133;DHT22;17779;50.942;4.026;2024-03-02T08:44:11;12.40;99.90
31133;DHT22;17779;50.942;4.026;2024-03-02T08:46:37;12.20;99.90
31133;DHT22;17779;50.942;4.026;2024-03-02T08:49:03;11.50;99.90
31133;DHT22;17779;50.942;4.026;2024-03-02T08:51:28;11.40;99.90
31133;DHT22;17779;50.942;4.026;2024-03-02T08:53:54;10.60;99.90
31133;DHT22;17779;50.942;4.026;2024-03-02T08:56:19;11.20;99.90
31133;DHT22;17779;50.942;4.026;2024-03-02T08:58:47;11.90;99.90
31133;DHT22;17779;50.942;4.026;2024-03-02T09:01:12;12.20;99.90
31133;DHT22;17779;50.942;4.026;2024-03-02T09:03:38;12.50;99.90
31133;DHT22;17779;50.942;4.026;2024-03-02T09:06:03;11.40;99.90
31133;DHT22;17779;50.942;4.026;2024-03-02T09:08:29;10.70;99.90
31133;DHT22;17779;50.942;4.026;2024-03-02T09:10:55;10.30;99.90
31133;DHT22;17779;50.942;4.026;2024-03-02T09:13:21;11.10;99.90
31133;DHT22;17779;50.942;4.026;2024-03-02T09:15:47;12.50;99.90
31133;DHT22;17779;50.942;4.026;2024-03-02T09:18:13;12.60;99.90
31133;DHT22;17779;50.942;4.026;2024-03-02T09:20:39;12.90;99.90
31133;DHT22;17779;50.942;4.026;2024-03-02T09:23:04;13.70;99.90
31133;DHT22;17779;50.942;4.026;2024-03-02T09:25:30;13.60;99.90
31133;DHT22;17779;50.942;4.026;2024-03-02T09:27:56;13.60;99.90
31133;DHT22;17779;50.942;4.026;2024-03-02T09:30:22;13.50;99.90
31133;DHT22;17779;50.942;4.026;2024-03-02T09:32:48;12.90;99.90
31133;DHT22;17779;50.942;4.026;2024-03-02T09:35:14;13.20;99.90
31133;DHT22;17779;50.942;4.026;2024-03-02T09:37:39;13.40;99.90
31133;DHT22;17779;50.942;4.026;2024-03-02T09:40:05;12.60;99.90
31133;DHT22;17779;50.942;4.026;2024-03-02T09:42:31;12.50;99.90
31133;DHT22;17779;50.942;4.026;2024-03-02T09:44:57;12.10;99.90
31133;DHT22;17779;50.942;4.026;2024-03-02T09:47:23;11.70;99.90
31133;DHT22;17779;50.942;4.026;2024-03-02T09:49:49;12.90;99.90
31133;DHT22;17779;50.942;4.026;2024-03-02T09:52:14;12.60;99.90
31133;DHT22;17779;50.942;4.026;2024-03-02T09:54:41;12.40;99.90
31133;DHT22;17779;50.942;4.026;2024-03-02T09:57:07;11.60;99.90
31133;DHT22;17779;50.942;4.026;2024-03-02T09:59:33;12.50;99.90
31133;DHT22;17779;50.942;4.026;2024-03-02T10:01:59;12.40;99.90
31133;DHT22;17779;50.942;4.026;2024-03-02T10:04:28;11.90;99.90
31133;DHT22;17779;50.942;4.026;2024-03-02T10:07:10;11.60;99.90
31133;DHT22;17779;50.942;4.026;2024-03-02T10:09:37;11.60;99.90
31133;DHT22;17779;50.942;4.026;2024-03-02T10:12:06;11.60;99.90
31133;DHT22;17779;50.942;4.026;2024-03-02T10:14:32;11.90;99.90
31133;DHT22;17779;50.942;4.026;2024-03-02T10:17:05;12.30;99.90
31133;DHT22;17779;50.942;4.026;2024-03-02T10:19:31;11.70;99.90
31133;DHT22;17779;50.942;4.026;2024-03-02T10:21:58;11.60;99.90
31133;DHT22;17779;50.942;4.026;2024-03-02T10:24:24;11.70;99.90
31133;DHT22;17779;50.942;4.026;2024-03-02T10:26:51;11.60;99.90
31133;DHT22;17779;50.942;4.026;2024-03-02T10:29:17;11.90;99.90
31133;DHT22;17779;50.942;4.026;2024-03-02T10:31:43;12.20;99.90
31133;DHT22;17779;50.942;4.026;2024-03-02T10:34:09;12.00;99.90
31133;DHT22;17779;50.942;4.026;2024-03-02T10:36:35;11.80;99.90
31133;DHT22;17779;50.942;4.026;2024-03-02T10:39:02;11.80;99.90
31133;DHT22;17779;50.942;4.026;2024-03-02T10:41:29;12.00;99.90
31133;DHT22;17779;50.942;4.026;2024-03-02T10:43:56;12.00;99.90
31133;DHT22;17779;50.942;4.026;2024-03-02T10:46:30;12.20;99.90
31133;DHT22;17779;50.942;4.026;2024-03-02T10:48:59;12.30;99.90
31133;DHT22;17779;50.942;4.026;2024-03-02T10:51:26;12.20;99.90
31133;DHT22;17779;50.942;4.026;2024-03-02T10:53:53;12.20;99.90
31133;DHT22;17779;50.942;4.026;2024-03-02T10:56:26;12.20;99.90
31133;DHT22;17779;50.942;4.026;2024-03-02T10:58:55;12.00;99.90
31133;DHT22;17779;50.942;4.026;2024-03-02T11:01:24;12.20;99.90
31133;DHT22;17779;50.942;4.026;2024-03-02T11:03:50;12.40;99.90
31133;DHT22;17779;50.942;4.026;2024-03-02T11:06:17;12.70;99.90
31133;DHT22;17779;50.942;4.026;2024-03-02T11:08:43;12.20;99.90
31133;DHT22;17779;50.942;4.026;2024-03-02T11:11:14;12.90;99.90
31133;DHT22;17779;50.942;4.026;2024-03-02T11:13:40;13.50;99.90
31133;DHT22;17779;50.942;4.026;2024-03-02T11:16:12;13.80;99.90
31133;DHT22;17779;50.942;4.026;2024-03-02T11:18:41;13.10;99.90
31133;DHT22;17779;50.942;4.026;2024-03-02T11:21:07;13.10;99.90
31133;DHT22;17779;50.942;4.026;2024-03-02T11:23:33;12.80;99.90
31133;DHT22;17779;50.942;4.026;2024-03-02T11:28:47;12.50;99.90
31133;DHT22;17779;50.942;4.026;2024-03-02T11:31:12;12.20;99.90
31133;DHT22;17779;50.942;4.026;2024-03-02T11:33:38;12.00;99.90
31133;DHT22;17779;50.942;4.026;2024-03-02T11:36:06;11.90;99.90
31133;DHT22;17779;50.942;4.026;2024-03-02T11:38:33;12.00;99.90
31133;DHT22;17779;50.942;4.026;2024-03-02T11:41:05;12.00;99.90
31133;DHT22;17779;50.942;4.026;2024-03-02T11:43:32;12.00;99.90
31133;DHT22;17779;50.942;4.026;2024-03-02T11:45:59;11.90;99.90
31133;DHT22;17779;50.942;4.026;2024-03-02T11:48:25;11.80;99.90
31133;DHT22;17779;50.942;4.026;2024-03-02T11:50:51;11.60;99.90
31133;DHT22;17779;50.942;4.026;2024-03-02T11:53:17;11.60;99.90
31133;DHT22;17779;50.942;4.026;2024-03-02T11:55:43;11.60;99.90
31133;DHT22;17779;50.942;4.026;2024-03-02T11:58:12;11.50;99.90
31133;DHT22;17779;50.942;4.026;2024-03-02T12:00:38;11.40;99.90
31133;DHT22;17779;50.942;4.026;2024-03-02T12:03:05;11.40;99.90
31133;DHT22;17779;50.942;4.026;2024-03-02T12:05:31;11.40;99.90
31133;DHT22;17779;50.942;4.026;2024-03-02T12:07:57;11.40;99.90
31133;DHT22;17779;50.942;4.026;2024-03-02T12:10:23;11.40;99.90
31133;DHT22;17779;50.942;4.026;2024-03-02T12:12:55;11.40;99.90
31133;DHT22;17779;50.942;4.026;2024-03-02T12:15:22;11.30;99.90
31133;DHT22;17779;50.942;4.026;2024-03-02T12:17:48;11.30;99.90
31133;DHT22;17779;50.942;4.026;2024-03-02T12:20:14;11.20;99.90
31133;DHT22;17779;50.942;4.026;2024-03-02T12:22:39;11.00;99.90
31133;DHT22;17779;50.942;4.026;2024-03-02T12:25:05;11.00;99.90
31133;DHT22;17779;50.942;4.026;2024-03-02T12:27:31;10.80;99.90
31133;DHT22;17779;50.942;4.026;2024-03-02T12:29:57;10.60;99.90
31133;DHT22;17779;50.942;4.026;2024-03-02T12:32:22;10.40;99.90
31133;DHT22;17779;50.942;4.026;2024-03-02T12:34:48;10.50;99.90
31133;DHT22;17779;50.942;4.026;2024-03-02T12:37:16;10.50;99.90
31133;DHT22;17779;50.942;4.026;2024-03-02T12:39:44;10.50;99.90
31133;DHT22;17779;50.942;4.026;2024-03-02T12:42:10;10.50;99.90
31133;DHT22;17779;50.942;4.026;2024-03-02T12:44:35;10.40;99.90
31133;DHT22;17779;50.942;4.026;2024-03-02T12:47:02;10.60;99.90
31133;DHT22;17779;50.942;4.026;2024-03-02T12:49:28;10.60;99.90
31133;DHT22;17779;50.942;4.026;2024-03-02T12:51:55;10.70;99.90
31133;DHT22;17779;50.942;4.026;2024-03-02T12:54:23;10.70;99.90
31133;DHT22;17779;50.942;4.026;2024-03-02T12:56:50;10.80;99.90
31133;DHT22;17779;50.942;4.026;2024-03-02T12:59:19;10.80;99.90
31133;DHT22;17779;50.942;4.026;2024-03-02T13:01:52;10.90;99.90
31133;DHT22;17779;50.942;4.026;2024-03-02T13:04:21;10.90;99.90
31133;DHT22;17779;50.942;4.026;2024-03-02T13:06:48;11.00;99.90
31133;DHT22;17779;50.942;4.026;2024-03-02T13:09:14;11.10;99.90
31133;DHT22;17779;50.942;4.026;2024-03-02T13:11:41;11.20;99.90
31133;DHT22;17779;50.942;4.026;2024-03-02T13:14:07;11.40;99.90
31133;DHT22;17779;50.942;4.026;2024-03-02T13:16:37;11.70;99.90
31133;DHT22;17779;50.942;4.026;2024-03-02T13:19:04;11.80;99.90
31133;DHT22;17779;50.942;4.026;2024-03-02T13:21:29;11.80;99.90
31133;DHT22;17779;50.942;4.026;2024-03-02T13:23:55;12.10;99.90
31133;DHT22;17779;50.942;4.026;2024-03-02T13:26:20;12.30;99.90
31133;DHT22;17779;50.942;4.026;2024-03-02T13:28:46;12.40;99.90
31133;DHT22;17779;50.942;4.026;2024-03-02T13:31:12;12.30;99.90
31133;DHT22;17779;50.942;4.026;2024-03-02T13:33:37;12.10;99.90
31133;DHT22;17779;50.942;4.026;2024-03-02T13:36:03;12.00;99.90
31133;DHT22;17779;50.942;4.026;2024-03-02T13:38:29;12.10;99.90
31133;DHT22;17779;50.942;4.026;2024-03-02T13:40:54;12.00;99.90
31133;DHT22;17779;50.942;4.026;2024-03-02T13:43:20;12.00;99.90
31133;DHT22;17779;50.942;4.026;2024-03-02T13:45:45;11.80;99.90
31133;DHT22;17779;50.942;4.026;2024-03-02T13:48:11;11.90;99.90
31133;DHT22;17779;50.942;4.026;2024-03-02T13:50:37;11.80;99.90
31133;DHT22;17779;50.942;4.026;2024-03-02T13:53:03;11.80;99.90
31133;DHT22;17779;50.942;4.026;2024-03-02T13:55:28;11.80;99.90
31133;DHT22;17779;50.942;4.026;2024-03-02T13:57:54;11.90;99.90
31133;DHT22;17779;50.942;4.026;2024-03-02T14:00:20;11.70;99.90
31133;DHT22;17779;50.942;4.026;2024-03-02T14:02:46;11.60;99.90
31133;DHT22;17779;50.942;4.026;2024-03-02T14:05:12;11.60;99.90
31133;DHT22;17779;50.942;4.026;2024-03-02T14:07:39;11.60;99.90
31133;DHT22;17779;50.942;4.026;2024-03-02T14:10:05;11.50;99.90
31133;DHT22;17779;50.942;4.026;2024-03-02T14:12:31;11.50;99.90
31133;DHT22;17779;50.942;4.026;2024-03-02T14:14:57;11.40;99.90
31133;DHT22;17779;50.942;4.026;2024-03-02T14:17:30;11.50;99.90
31133;DHT22;17779;50.942;4.026;2024-03-02T14:19:58;11.50;99.90
31133;DHT22;17779;50.942;4.026;2024-03-02T14:22:24;11.50;99.90
31133;DHT22;17779;50.942;4.026;2024-03-02T14:24:51;11.60;99.90
31133;DHT22;17779;50.942;4.026;2024-03-02T14:27:17;11.70;99.90
31133;DHT22;17779;50.942;4.026;2024-03-02T14:29:43;11.90;99.90
31133;DHT22;17779;50.942;4.026;2024-03-02T14:32:08;12.00;99.90
31133;DHT22;17779;50.942;4.026;2024-03-02T14:34:34;12.10;99.90
31133;DHT22;17779;50.942;4.026;2024-03-02T14:37:00;12.10;99.90
31133;DHT22;17779;50.942;4.026;2024-03-02T14:39:26;12.00;99.90
31133;DHT22;17779;50.942;4.026;2024-03-02T14:41:52;12.10;99.90
31133;DHT22;17779;50.942;4.026;2024-03-02T14:44:17;12.20;99.90
31133;DHT22;17779;50.942;4.026;2024-03-02T14:46:47;12.20;99.90
31133;DHT22;17779;50.942;4.026;2024-03-02T14:49:13;12.20;99.90
31133;DHT22;17779;50.942;4.026;2024-03-02T14:51:39;12.20;99.90
31133;DHT22;17779;50.942;4.026;2024-03-02T14:54:04;12.20;99.90
31133;DHT22;17779;50.942;4.026;2024-03-02T14:56:30;12.20;99.90
31133;DHT22;17779;50.942;4.026;2024-03-02T14:58:56;12.00;99.90
31133;DHT22;17779;50.942;4.026;2024-03-02T15:01:21;11.90;99.90
31133;DHT22;17779;50.942;4.026;2024-03-02T15:03:49;11.90;99.90
31133;DHT22;17779;50.942;4.026;2024-03-02T15:06:15;12.00;99.90
31133;DHT22;17779;50.942;4.026;2024-03-02T15:08:41;11.90;99.90
31133;DHT22;17779;50.942;4.026;2024-03-02T15:11:07;12.10;99.90
31133;DHT22;17779;50.942;4.026;2024-03-02T15:13:33;12.10;99.90
31133;DHT22;17779;50.942;4.026;2024-03-02T15:15:59;12.10;99.90
31133;DHT22;17779;50.942;4.026;2024-03-02T15:18:25;12.10;99.90
31133;DHT22;17779;50.942;4.026;2024-03-02T15:20:50;12.10;99.90
31133;DHT22;17779;50.942;4.026;2024-03-02T15:23:16;12.10;99.90
31133;DHT22;17779;50.942;4.026;2024-03-02T15:25:42;12.20;99.90
31133;DHT22;17779;50.942;4.026;2024-03-02T15:28:08;12.30;99.90
31133;DHT22;17779;50.942;4.026;2024-03-02T15:30:33;12.40;99.90
31133;DHT22;17779;50.942;4.026;2024-03-02T15:32:59;12.30;99.90
31133;DHT22;17779;50.942;4.026;2024-03-02T15:35:24;12.20;99.90
31133;DHT22;17779;50.942;4.026;2024-03-02T15:37:51;12.10;99.90
31133;DHT22;17779;50.942;4.026;2024-03-02T15:40:16;11.90;99.90